Time;durP1;ratioP1;P1;durP2;ratioP2;P2;SDS_P1;SDS_P2;PMS_P1;PMS_P2;Temp;Humidity;BMP_temperature;BMP_pressure;BME280_temperature;BME280_humidity;BME280_pressure;Samples;Min_cycle;Max_cycle;Signal;HPM_P1;HPM_P2
2022/11/06 00:02:33;;;;;;;18.00;8.27;;;;;;;;;;5022171;28;20395;-77
2022/11/06 00:08:46;;;;;;;10.48;6.88;;;;;;;;;;5015409;28;20050;-76
2022/11/06 00:11:32;;;;;;;9.73;6.90;;;;;;;;;;5016177;28;20041;-77
2022/11/06 00:14:17;;;;;;;12.27;7.28;;;;;;;;;;5015309;28;20050;-76
2022/11/06 00:17:03;;;;;;;11.55;7.18;;;;;;;;;;5021828;28;20042;-78
2022/11/06 00:19:48;;;;;;;8.93;6.53;;;;;;;;;;5015062;28;20038;-75
2022/11/06 00:22:39;;;;;;;14.10;6.57;;;;;;;;;;5014010;28;20049;-77
2022/11/06 00:25:25;;;;;;;10.30;6.97;;;;;;;;;;5015632;28;20045;-76
2022/11/06 00:28:10;;;;;;;11.68;7.15;;;;;;;;;;5014888;28;20046;-78
2022/11/06 00:31:09;;;;;;;10.50;5.95;;;;;;;;;;5015141;28;20042;-77
2022/11/06 00:33:57;;;;;;;13.45;6.75;;;;;;;;;;5014289;28;20046;-77
2022/11/06 00:36:43;;;;;;;14.68;6.90;;;;;;;;;;5013383;28;20042;-76
2022/11/06 00:39:28;;;;;;;12.77;7.93;;;;;;;;;;5013513;28;20054;-76
2022/11/06 00:42:14;;;;;;;13.88;6.95;;;;;;;;;;5020150;28;20042;-76
2022/11/06 00:44:59;;;;;;;11.55;6.75;;;;;;;;;;5020043;28;20403;-77
2022/11/06 00:47:49;;;;;;;12.60;6.45;;;;;;;;;;5016355;28;20041;-77
2022/11/06 00:50:34;;;;;;;9.73;6.80;;;;;;;;;;5013708;28;20042;-75
2022/11/06 00:53:25;;;;;;;11.73;6.82;;;;;;;;;;5021032;28;20038;-77
2022/11/06 00:56:16;;;;;;;8.30;5.95;;;;;;;;;;5014623;28;20050;-77
2022/11/06 00:59:04;;;;;;;11.63;5.95;;;;;;;;;;5014589;28;20471;-76
2022/11/06 01:01:50;;;;;;;14.10;6.25;;;;;;;;;;5014494;28;20057;-77
2022/11/06 01:04:36;;;;;;;7.53;5.00;;;;;;;;;;5014796;28;20046;-77
2022/11/06 01:07:21;;;;;;;12.95;6.28;;;;;;;;;;5006748;28;20050;-77
2022/11/06 01:10:07;;;;;;;14.93;6.78;;;;;;;;;;5014401;28;20050;-76
2022/11/06 01:12:52;;;;;;;9.40;6.53;;;;;;;;;;5014289;28;20041;-77
2022/11/06 01:15:37;;;;;;;10.50;6.78;;;;;;;;;;5013186;28;20049;-76
2022/11/06 01:18:23;;;;;;;10.73;6.55;;;;;;;;;;5014672;28;20049;-77
2022/11/06 01:21:11;;;;;;;52.17;27.92;;;;;;;;;;5014310;28;20042;-77
2022/11/06 01:24:02;;;;;;;13.75;7.05;;;;;;;;;;5014138;28;20046;-76
2022/11/06 01:26:48;;;;;;;23.70;13.02;;;;;;;;;;5014413;28;20038;-77
2022/11/06 01:29:33;;;;;;;14.35;9.07;;;;;;;;;;5014005;28;20046;-76
2022/11/06 01:32:19;;;;;;;17.92;8.73;;;;;;;;;;5013858;28;20400;-76
2022/11/06 01:35:04;;;;;;;11.38;7.72;;;;;;;;;;5014108;28;20041;-76
2022/11/06 01:37:49;;;;;;;9.88;5.70;;;;;;;;;;5014001;28;20038;-76
2022/11/06 01:40:43;;;;;;;12.30;5.20;;;;;;;;;;5012939;28;20053;-76
2022/11/06 01:44:10;;;;;;;9.00;5.70;;;;;;;;;;5013800;28;20050;-76
2022/11/06 01:46:56;;;;;;;8.27;5.35;;;;;;;;;;5013363;28;20415;-76
2022/11/06 01:49:42;;;;;;;7.28;5.47;;;;;;;;;;5013753;28;20392;-76
2022/11/06 01:52:29;;;;;;;9.93;6.00;;;;;;;;;;5020255;28;20495;-76
2022/11/06 01:55:21;;;;;;;9.95;6.50;;;;;;;;;;5013735;28;20050;-76
2022/11/06 01:58:10;;;;;;;11.45;6.60;;;;;;;;;;5020367;28;20046;-76
2022/11/06 02:00:55;;;;;;;10.60;6.18;;;;;;;;;;5013757;28;20046;-76
2022/11/06 02:03:57;;;;;;;9.98;6.30;;;;;;;;;;5013726;28;20045;-76
2022/11/06 02:06:44;;;;;;;11.45;7.18;;;;;;;;;;5013335;28;20038;-76
2022/11/06 02:09:31;;;;;;;12.43;6.80;;;;;;;;;;5013588;28;20049;-76
2022/11/06 02:12:45;;;;;;;17.05;9.10;;;;;;;;;;5013522;28;20047;-76
2022/11/06 02:15:33;;;;;;;12.50;8.25;;;;;;;;;;5020498;28;20399;-76
2022/11/06 02:18:47;;;;;;;11.05;6.93;;;;;;;;;;5013789;28;20507;-76
2022/11/06 02:21:50;;;;;;;13.90;7.07;;;;;;;;;;5020147;28;20041;-76
2022/11/06 02:25:00;;;;;;;9.88;6.40;;;;;;;;;;5013472;28;20405;-77
2022/11/06 02:28:02;;;;;;;9.00;6.00;;;;;;;;;;5013529;28;20053;-76
2022/11/06 02:30:48;;;;;;;10.80;6.00;;;;;;;;;;5013561;28;20046;-76
2022/11/06 02:33:41;;;;;;;9.95;6.50;;;;;;;;;;5013378;28;20046;-76
2022/11/06 02:36:31;;;;;;;10.60;6.15;;;;;;;;;;5019940;28;20042;-76
2022/11/06 02:39:19;;;;;;;9.60;6.05;;;;;;;;;;5020009;28;20049;-76
2022/11/06 02:42:07;;;;;;;9.52;5.50;;;;;;;;;;5013319;28;20042;-76
2022/11/06 02:44:55;;;;;;;10.75;5.88;;;;;;;;;;5013289;28;20042;-76
2022/11/06 02:47:44;;;;;;;8.75;5.95;;;;;;;;;;5013006;28;20049;-76
2022/11/06 02:50:34;;;;;;;8.70;5.47;;;;;;;;;;5013597;28;20046;-76
2022/11/06 02:53:23;;;;;;;8.70;6.05;;;;;;;;;;5020332;28;20050;-77
2022/11/06 02:56:13;;;;;;;10.77;5.32;;;;;;;;;;5014103;28;20042;-77
2022/11/06 02:59:15;;;;;;;7.47;5.10;;;;;;;;;;5023413;28;20053;-77
2022/11/06 03:02:04;;;;;;;8.88;5.07;;;;;;;;;;5022190;28;20050;-76
2022/11/06 03:05:04;;;;;;;9.73;5.07;;;;;;;;;;5023568;28;20057;-75
2022/11/06 03:08:06;;;;;;;8.15;4.70;;;;;;;;;;5016854;28;20038;-77
2022/11/06 03:11:18;;;;;;;8.07;4.70;;;;;;;;;;5016961;28;20079;-76
2022/11/06 03:14:33;;;;;;;7.50;4.50;;;;;;;;;;5022965;28;20046;-76
2022/11/06 03:17:35;;;;;;;10.80;4.72;;;;;;;;;;5017095;28;20483;-76
2022/11/06 03:20:24;;;;;;;9.02;4.80;;;;;;;;;;5016425;28;20054;-76
2022/11/06 03:23:19;;;;;;;6.88;4.45;;;;;;;;;;5022810;28;20483;-75
2022/11/06 03:26:14;;;;;;;9.25;4.20;;;;;;;;;;5016211;28;20045;-75
2022/11/06 03:29:09;;;;;;;5.30;4.20;;;;;;;;;;5016471;28;20034;-76
2022/11/06 03:32:00;;;;;;;5.50;4.32;;;;;;;;;;5016457;28;20041;-76
2022/11/06 03:34:57;;;;;;;6.00;4.47;;;;;;;;;;5015915;28;20046;-76
2022/11/06 03:37:50;;;;;;;9.25;4.45;;;;;;;;;;5015886;28;20046;-76
2022/11/06 03:40:42;;;;;;;6.88;4.05;;;;;;;;;;5016271;28;20038;-76
2022/11/06 03:43:34;;;;;;;6.30;4.38;;;;;;;;;;5022321;28;20053;-77
2022/11/06 03:46:23;;;;;;;5.68;3.45;;;;;;;;;;5019343;28;20495;-76
2022/11/06 03:49:12;;;;;;;7.43;4.03;;;;;;;;;;5022974;28;20376;-76
2022/11/06 03:52:05;;;;;;;14.52;7.45;;;;;;;;;;5015684;28;20054;-76
2022/11/06 03:55:17;;;;;;;147.68;72.40;;;;;;;;;;5022429;28;20045;-76
2022/11/06 03:58:09;;;;;;;11.27;6.70;;;;;;;;;;5021384;28;20053;-77
2022/11/06 04:00:58;;;;;;;9.13;5.13;;;;;;;;;;5022341;28;20416;-76
2022/11/06 04:04:05;;;;;;;6.07;4.05;;;;;;;;;;5015479;28;20042;-78
2022/11/06 04:06:55;;;;;;;8.45;4.32;;;;;;;;;;5015468;28;20046;-76
2022/11/06 04:16:00;;;;;;;6.75;3.45;;;;;;;;;;5021960;28;20049;-76
2022/11/06 04:18:45;;;;;;;8.32;3.58;;;;;;;;;;5021699;28;20046;-76
2022/11/06 04:21:52;;;;;;;5.47;3.13;;;;;;;;;;5015523;28;20045;-77
2022/11/06 04:28:07;;;;;;;5.78;3.58;;;;;;;;;;5021726;28;20050;-77
2022/11/06 04:31:30;;;;;;;6.88;4.10;;;;;;;;;;5014764;28;20042;-77
2022/11/06 04:34:38;;;;;;;6.97;3.92;;;;;;;;;;5032742;28;20038;-75
2022/11/06 04:37:38;;;;;;;8.57;4.15;;;;;;;;;;5032787;28;20072;-76
2022/11/06 04:40:43;;;;;;;5.43;3.88;;;;;;;;;;5014771;28;20050;-77
2022/11/06 04:43:46;;;;;;;6.15;4.15;;;;;;;;;;5021446;28;20049;-76
2022/11/06 04:46:38;;;;;;;6.60;3.40;;;;;;;;;;5017583;28;20045;-76
2022/11/06 04:49:28;;;;;;;5.82;3.40;;;;;;;;;;5021515;28;20483;-76
2022/11/06 04:52:25;;;;;;;3.67;2.90;;;;;;;;;;5014570;28;20041;-76
2022/11/06 04:55:11;;;;;;;6.32;3.80;;;;;;;;;;5014640;28;20038;-76
2022/11/06 04:57:56;;;;;;;5.15;3.42;;;;;;;;;;5014557;28;20049;-76
2022/11/06 05:00:45;;;;;;;5.95;3.47;;;;;;;;;;5014547;28;20041;-76
2022/11/06 05:03:30;;;;;;;5.50;3.72;;;;;;;;;;5015007;28;20042;-76
2022/11/06 05:06:16;;;;;;;7.95;3.63;;;;;;;;;;5021248;28;20038;-76
2022/11/06 05:09:02;;;;;;;4.38;3.33;;;;;;;;;;5014260;28;20403;-76
2022/11/06 05:11:48;;;;;;;4.60;3.65;;;;;;;;;;5020824;28;20046;-76
2022/11/06 05:14:34;;;;;;;7.57;3.83;;;;;;;;;;5020704;28;20045;-76
2022/11/06 05:17:19;;;;;;;4.47;3.50;;;;;;;;;;5020913;28;20042;-76
2022/11/06 05:20:05;;;;;;;4.57;3.47;;;;;;;;;;5020422;28;20042;-76
2022/11/06 05:22:57;;;;;;;9.90;3.95;;;;;;;;;;5020566;28;20045;-76
2022/11/06 05:25:42;;;;;;;7.97;3.70;;;;;;;;;;5014335;28;20041;-76
2022/11/06 05:28:28;;;;;;;5.15;3.20;;;;;;;;;;5014189;28;20045;-76
2022/11/06 05:31:13;;;;;;;7.18;3.85;;;;;;;;;;5014037;28;20042;-76
2022/11/06 05:33:59;;;;;;;7.53;3.92;;;;;;;;;;5014194;28;20046;-76
2022/11/06 05:36:44;;;;;;;5.22;3.83;;;;;;;;;;5015081;28;20034;-76
2022/11/06 05:39:29;;;;;;;13.25;5.15;;;;;;;;;;5014150;28;20042;-76
2022/11/06 05:42:15;;;;;;;11.57;4.70;;;;;;;;;;5020503;28;20045;-76
2022/11/06 05:45:00;;;;;;;9.13;4.35;;;;;;;;;;5013856;28;20395;-76
2022/11/06 05:47:46;;;;;;;5.97;4.78;;;;;;;;;;5014150;28;20049;-76
2022/11/06 05:50:34;;;;;;;8.93;5.78;;;;;;;;;;5013690;28;20056;-76
2022/11/06 05:53:22;;;;;;;7.72;5.20;;;;;;;;;;5013372;28;20053;-77
2022/11/06 05:56:08;;;;;;;8.80;5.13;;;;;;;;;;5020556;28;20041;-76
2022/11/06 05:58:53;;;;;;;10.13;6.53;;;;;;;;;;5020426;28;20038;-76
2022/11/06 06:01:38;;;;;;;6.95;4.90;;;;;;;;;;5013411;28;20042;-77
2022/11/06 06:04:23;;;;;;;7.38;4.88;;;;;;;;;;5020141;28;20049;-76
2022/11/06 06:07:09;;;;;;;11.40;5.88;;;;;;;;;;5013621;28;20046;-76
2022/11/06 06:09:55;;;;;;;11.40;6.10;;;;;;;;;;5014358;28;20042;-76
2022/11/06 06:12:40;;;;;;;16.17;8.13;;;;;;;;;;5020716;28;20510;-76
2022/11/06 06:15:26;;;;;;;16.65;9.27;;;;;;;;;;5013440;28;20487;-76
2022/11/06 06:18:12;;;;;;;21.40;10.05;;;;;;;;;;5013491;28;20045;-76
2022/11/06 06:21:00;;;;;;;18.42;11.70;;;;;;;;;;5013965;28;20046;-76
2022/11/06 06:23:45;;;;;;;18.13;9.80;;;;;;;;;;5013741;28;20045;-76
2022/11/06 06:26:31;;;;;;;52.42;27.13;;;;;;;;;;5013618;28;20038;-76
2022/11/06 06:29:17;;;;;;;45.85;23.77;;;;;;;;;;5013414;28;20046;-76
2022/11/06 06:32:03;;;;;;;17.13;10.63;;;;;;;;;;5017194;28;20034;-76
2022/11/06 06:34:49;;;;;;;13.70;8.65;;;;;;;;;;5022326;28;20050;-76
2022/11/06 06:37:35;;;;;;;17.67;8.60;;;;;;;;;;5017262;28;20072;-76
2022/11/06 06:40:21;;;;;;;15.25;8.45;;;;;;;;;;5017177;28;20054;-76
2022/11/06 06:43:06;;;;;;;23.88;16.17;;;;;;;;;;5017146;28;20045;-76
2022/11/06 06:45:52;;;;;;;12.63;7.80;;;;;;;;;;5017173;28;20050;-76
2022/11/06 06:48:37;;;;;;;19.05;7.35;;;;;;;;;;5017200;28;20046;-76
2022/11/06 06:51:22;;;;;;;15.07;7.35;;;;;;;;;;5016747;28;20046;-76
2022/11/06 06:54:08;;;;;;;28.67;11.30;;;;;;;;;;5016825;28;20038;-76
2022/11/06 06:56:53;;;;;;;20.52;10.55;;;;;;;;;;5016611;28;20495;-77
2022/11/06 06:59:39;;;;;;;20.48;8.73;;;;;;;;;;5016838;28;20479;-76
2022/11/06 07:02:24;;;;;;;17.48;8.27;;;;;;;;;;5016823;28;20042;-76
2022/11/06 07:05:09;;;;;;;14.82;8.10;;;;;;;;;;5016538;28;20046;-76
2022/11/06 07:07:55;;;;;;;16.42;8.40;;;;;;;;;;5023569;28;20045;-76
2022/11/06 07:10:40;;;;;;;30.33;17.05;;;;;;;;;;5016293;28;20050;-77
2022/11/06 07:13:26;;;;;;;18.48;10.45;;;;;;;;;;5016399;28;20046;-76
2022/11/06 07:16:11;;;;;;;12.57;7.68;;;;;;;;;;5016829;28;20395;-77
2022/11/06 07:18:57;;;;;;;12.70;6.63;;;;;;;;;;5016531;28;20041;-77
2022/11/06 07:21:42;;;;;;;19.13;10.45;;;;;;;;;;5016757;28;20054;-76
2022/11/06 07:24:27;;;;;;;25.45;13.07;;;;;;;;;;5016529;28;20050;-75
2022/11/06 07:27:12;;;;;;;52.50;27.25;;;;;;;;;;5023197;28;20042;-76
2022/11/06 07:29:59;;;;;;;51.63;25.60;;;;;;;;;;5023486;28;20045;-75
2022/11/06 07:32:44;;;;;;;47.17;24.77;;;;;;;;;;5022847;28;20046;-77
2022/11/06 07:35:31;;;;;;;30.88;20.13;;;;;;;;;;5015651;28;20046;-76
2022/11/06 07:38:17;;;;;;;26.17;15.38;;;;;;;;;;5015995;28;20037;-77
2022/11/06 07:41:06;;;;;;;19.77;12.00;;;;;;;;;;5022131;28;20046;-76
2022/11/06 07:43:51;;;;;;;19.25;13.60;;;;;;;;;;5018306;28;20054;-76
2022/11/06 07:46:36;;;;;;;27.52;17.42;;;;;;;;;;5015098;28;20053;-76
2022/11/06 07:49:21;;;;;;;25.95;14.93;;;;;;;;;;5022618;28;20046;-76
2022/11/06 07:52:07;;;;;;;19.83;12.07;;;;;;;;;;5022185;28;20046;-76
2022/11/06 07:54:53;;;;;;;19.98;12.82;;;;;;;;;;5015683;28;20045;-76
2022/11/06 07:57:38;;;;;;;19.30;12.27;;;;;;;;;;5015924;28;20045;-76
2022/11/06 08:00:24;;;;;;;14.80;9.77;;;;;;;;;;5015612;28;20050;-77
2022/11/06 08:03:09;;;;;;;16.77;11.27;;;;;;;;;;5015307;28;20049;-78
2022/11/06 08:05:58;;;;;;;17.98;11.85;;;;;;;;;;5015302;28;20042;-80
2022/11/06 08:08:42;;;;;;;15.80;7.78;;;;;;;;;;5022065;28;20045;-79
2022/11/06 08:11:28;;;;;;;10.75;6.45;;;;;;;;;;5015541;28;20046;-78
2022/11/06 08:14:14;;;;;;;12.30;6.00;;;;;;;;;;5015058;28;20050;-79
2022/11/06 08:16:59;;;;;;;17.02;7.35;;;;;;;;;;5015557;28;20046;-78
2022/11/06 08:19:46;;;;;;;13.43;8.00;;;;;;;;;;5015141;28;20045;-79
2022/11/06 08:22:32;;;;;;;16.25;9.48;;;;;;;;;;5014984;28;20050;-79
2022/11/06 08:25:17;;;;;;;16.85;10.13;;;;;;;;;;5015072;28;20046;-79
2022/11/06 08:28:03;;;;;;;15.27;8.95;;;;;;;;;;5020673;28;20050;-79
2022/11/06 08:30:49;;;;;;;19.05;8.90;;;;;;;;;;5014736;28;20042;-79
2022/11/06 08:33:35;;;;;;;21.85;10.00;;;;;;;;;;5020385;28;20054;-79
2022/11/06 08:36:20;;;;;;;24.15;11.90;;;;;;;;;;5014764;28;20045;-79
2022/11/06 08:39:06;;;;;;;21.92;12.60;;;;;;;;;;5015582;28;20054;-80
2022/11/06 08:41:51;;;;;;;22.65;11.65;;;;;;;;;;5015598;28;20391;-79
2022/11/06 08:44:37;;;;;;;18.10;10.07;;;;;;;;;;5015611;28;20049;-79
2022/11/06 08:47:22;;;;;;;18.05;12.15;;;;;;;;;;5015141;28;20050;-78
2022/11/06 08:50:08;;;;;;;12.90;8.50;;;;;;;;;;5014473;28;20042;-78
2022/11/06 08:52:56;;;;;;;11.82;7.95;;;;;;;;;;5014457;28;20046;-78
2022/11/06 08:55:41;;;;;;;14.65;10.13;;;;;;;;;;5019351;28;20391;-78
2022/11/06 08:58:26;;;;;;;14.90;10.20;;;;;;;;;;5021117;28;20038;-77
2022/11/06 09:01:12;;;;;;;13.65;8.80;;;;;;;;;;5020701;28;20046;-78
2022/11/06 09:03:57;;;;;;;46.13;28.98;;;;;;;;;;5014119;28;20479;-79
2022/11/06 09:06:43;;;;;;;23.15;13.38;;;;;;;;;;5013575;28;20046;-79
2022/11/06 09:09:30;;;;;;;49.28;30.67;;;;;;;;;;5013613;28;20042;-77
2022/11/06 09:12:16;;;;;;;29.13;14.20;;;;;;;;;;5020363;28;20046;-77
2022/11/06 09:15:01;;;;;;;19.73;11.55;;;;;;;;;;5013693;28;20045;-77
2022/11/06 09:17:48;;;;;;;19.23;9.57;;;;;;;;;;5014194;28;20041;-77
2022/11/06 09:20:34;;;;;;;25.42;16.08;;;;;;;;;;5020481;28;20479;-77
2022/11/06 09:23:19;;;;;;;107.80;58.88;;;;;;;;;;5013926;28;20045;-77
2022/11/06 09:26:05;;;;;;;38.75;23.75;;;;;;;;;;5013925;28;20050;-78
2022/11/06 09:28:51;;;;;;;30.80;17.75;;;;;;;;;;5013887;28;20049;-78
2022/11/06 09:31:36;;;;;;;31.67;18.65;;;;;;;;;;5020107;28;20061;-78
2022/11/06 09:34:21;;;;;;;26.75;14.82;;;;;;;;;;5013733;28;20041;-80
2022/11/06 09:37:06;;;;;;;26.02;15.05;;;;;;;;;;5020035;28;20037;-80
2022/11/06 09:39:52;;;;;;;28.42;16.17;;;;;;;;;;5013966;28;20057;-78
2022/11/06 09:43:01;;;;;;;28.92;15.52;;;;;;;;;;5013584;28;20042;-81
2022/11/06 09:45:48;;;;;;;22.63;12.52;;;;;;;;;;5013308;28;20062;-80
2022/11/06 09:48:46;;;;;;;20.67;12.15;;;;;;;;;;5013881;28;20046;-81
2022/11/06 09:51:40;;;;;;;27.30;14.65;;;;;;;;;;5013686;28;20038;-78
2022/11/06 09:54:43;;;;;;;23.17;13.77;;;;;;;;;;5013882;28;20046;-81
2022/11/06 09:57:37;;;;;;;25.58;14.13;;;;;;;;;;5014109;28;20413;-78
2022/11/06 10:00:22;;;;;;;18.77;13.15;;;;;;;;;;5013707;28;20050;-77
2022/11/06 10:03:34;;;;;;;24.15;14.07;;;;;;;;;;5023924;28;20042;-80
2022/11/06 10:06:22;;;;;;;18.40;10.63;;;;;;;;;;5016798;28;20046;-79
2022/11/06 10:09:09;;;;;;;17.73;11.95;;;;;;;;;;5024919;28;20367;-79
2022/11/06 10:12:03;;;;;;;24.65;14.82;;;;;;;;;;5023858;28;20045;-79
2022/11/06 10:15:18;;;;;;;16.58;11.43;;;;;;;;;;5017523;28;20038;-79
2022/11/06 10:18:24;;;;;;;;;;;;;;;;;;5017625;28;20062;-79
2022/11/06 10:21:18;;;;;;;23.48;15.38;;;;;;;;;;5017550;28;19913;-79
2022/11/06 10:24:22;;;;;;;23.63;15.77;;;;;;;;;;5024112;28;20053;-79
2022/11/06 10:27:19;;;;;;;18.92;10.57;;;;;;;;;;5017030;28;20392;-79
2022/11/06 10:30:15;;;;;;;20.45;11.30;;;;;;;;;;5017152;28;20042;-79
2022/11/06 10:33:17;;;;;;;16.65;10.05;;;;;;;;;;5016614;28;20038;-79
2022/11/06 10:36:11;;;;;;;16.70;9.23;;;;;;;;;;5023829;28;20480;-78
2022/11/06 10:38:58;;;;;;;19.08;11.10;;;;;;;;;;5017565;28;20475;-79
2022/11/06 10:41:52;;;;;;;24.02;14.13;;;;;;;;;;5015774;28;20046;-78
2022/11/06 10:44:42;;;;;;;14.10;9.73;;;;;;;;;;5016986;28;20050;-78
2022/11/06 10:47:35;;;;;;;22.40;15.63;;;;;;;;;;5016548;28;20042;-78
2022/11/06 10:50:27;;;;;;;24.77;14.52;;;;;;;;;;5018501;28;20391;-79
2022/11/06 10:53:44;;;;;;;20.02;13.52;;;;;;;;;;5017076;28;20046;-78
2022/11/06 10:56:51;;;;;;;22.27;12.88;;;;;;;;;;5022932;28;20050;-78
2022/11/06 10:59:36;;;;;;;19.92;11.73;;;;;;;;;;5016749;28;20043;-78
2022/11/06 11:02:36;;;;;;;14.43;9.27;;;;;;;;;;5023243;28;20045;-78
2022/11/06 11:05:24;;;;;;;42.72;24.90;;;;;;;;;;5016780;28;20046;-78
2022/11/06 11:08:33;;;;;;;31.35;18.90;;;;;;;;;;5016634;28;20395;-79
2022/11/06 11:11:25;;;;;;;10.10;8.02;;;;;;;;;;5016944;28;20041;-79
2022/11/06 11:14:21;;;;;;;16.88;8.88;;;;;;;;;;5015656;28;20046;-77
2022/11/06 11:17:07;;;;;;;12.68;8.50;;;;;;;;;;5015607;28;20049;-78
2022/11/06 11:19:53;;;;;;;16.10;10.80;;;;;;;;;;5016338;28;20046;-77
2022/11/06 11:22:39;;;;;;;23.17;13.80;;;;;;;;;;5019933;28;20399;-80
2022/11/06 11:25:24;;;;;;;22.88;12.23;;;;;;;;;;5023926;28;20042;-78
2022/11/06 11:28:40;;;;;;;18.77;11.10;;;;;;;;;;5016770;28;20392;-78
2022/11/06 11:31:46;;;;;;;22.58;10.05;;;;;;;;;;5017641;28;20046;-78
2022/11/06 11:34:36;;;;;;;21.27;11.88;;;;;;;;;;5016348;28;20046;-78
2022/11/06 11:37:28;;;;;;;19.90;10.82;;;;;;;;;;5024766;28;20050;-79
2022/11/06 11:40:22;;;;;;;26.23;13.07;;;;;;;;;;5016572;28;20046;-79
2022/11/06 11:43:28;;;;;;;23.10;9.77;;;;;;;;;;5017016;28;20037;-78
2022/11/06 11:46:17;;;;;;;27.35;15.27;;;;;;;;;;5017517;28;20049;-78
2022/11/06 11:49:04;;;;;;;20.80;12.93;;;;;;;;;;5016131;28;20061;-78
2022/11/06 11:51:49;;;;;;;18.63;11.80;;;;;;;;;;5015952;28;20499;-78
2022/11/06 11:54:35;;;;;;;24.08;13.90;;;;;;;;;;5015666;28;20046;-77
2022/11/06 11:57:24;;;;;;;23.27;12.77;;;;;;;;;;5015657;28;20053;-78
2022/11/06 12:00:16;;;;;;;19.38;12.70;;;;;;;;;;5022322;28;20049;-77
2022/11/06 12:03:09;;;;;;;24.38;15.27;;;;;;;;;;5022637;28;20467;-78
2022/11/06 12:06:05;;;;;;;22.60;13.60;;;;;;;;;;5015508;28;20041;-77
2022/11/06 12:08:54;;;;;;;30.60;17.95;;;;;;;;;;5022018;28;20042;-77
2022/11/06 12:11:42;;;;;;;38.45;18.65;;;;;;;;;;5021974;28;20050;-77
2022/11/06 12:14:34;;;;;;;48.03;26.23;;;;;;;;;;5022098;28;20045;-81
2022/11/06 12:17:22;;;;;;;30.55;16.73;;;;;;;;;;5015286;28;20050;-81
2022/11/06 12:20:18;;;;;;;23.17;13.77;;;;;;;;;;5015377;28;20042;-81
2022/11/06 12:23:09;;;;;;;26.83;14.88;;;;;;;;;;5015451;28;20045;-80
2022/11/06 12:26:23;;;;;;;21.77;13.80;;;;;;;;;;5017975;28;20050;-80
2022/11/06 12:29:20;;;;;;;19.85;12.95;;;;;;;;;;5015447;28;20038;-80
2022/11/06 12:32:23;;;;;;;19.70;11.00;;;;;;;;;;5015113;28;20148;-81
2022/11/06 12:35:20;;;;;;;25.98;15.38;;;;;;;;;;5014958;28;20038;-82
2022/11/06 12:38:31;;;;;;;22.17;13.85;;;;;;;;;;5014828;28;20045;-80
2022/11/06 12:41:37;;;;;;;21.85;13.10;;;;;;;;;;5014864;28;20046;-80
2022/11/06 12:44:22;;;;;;;;;;;;;;;;;;5015337;28;20049;-81
2022/11/06 12:47:23;;;;;;;28.02;17.58;;;;;;;;;;5014445;28;20371;-81
2022/11/06 12:50:28;;;;;;;24.45;16.48;;;;;;;;;;5015062;28;20042;-80
2022/11/06 12:53:32;;;;;;;33.38;17.25;;;;;;;;;;5014620;28;20523;-80
2022/11/06 12:56:20;;;;;;;35.70;20.83;;;;;;;;;;5014748;28;20041;-80
2022/11/06 12:59:44;;;;;;;35.30;21.92;;;;;;;;;;5015288;28;20050;-81
2022/11/06 13:02:48;;;;;;;32.75;21.65;;;;;;;;;;5014596;28;20367;-80
2022/11/06 13:05:51;;;;;;;40.95;23.45;;;;;;;;;;5014516;28;20037;-81
2022/11/06 13:08:40;;;;;;;27.17;18.73;;;;;;;;;;5014261;28;20042;-80
2022/11/06 13:11:25;;;;;;;18.45;12.93;;;;;;;;;;5015529;28;20038;-79
2022/11/06 13:14:25;;;;;;;28.70;15.75;;;;;;;;;;5014783;28;20050;-79
2022/11/06 13:17:25;;;;;;;38.78;21.33;;;;;;;;;;5014272;28;20053;-81
2022/11/06 13:20:35;;;;;;;25.33;15.45;;;;;;;;;;5014727;28;20065;-80
2022/11/06 13:23:36;;;;;;;42.70;22.73;;;;;;;;;;5014969;28;20053;-80
2022/11/06 13:26:36;;;;;;;32.10;15.77;;;;;;;;;;5014800;28;20050;-80
2022/11/06 13:29:23;;;;;;;21.85;13.30;;;;;;;;;;5014424;28;20038;-77
2022/11/06 13:32:14;;;;;;;28.08;14.00;;;;;;;;;;5014414;28;20071;-82
2022/11/06 13:35:02;;;;;;;29.33;17.27;;;;;;;;;;5014392;28;20041;-81
2022/11/06 13:37:50;;;;;;;38.42;21.67;;;;;;;;;;5014204;28;20049;-79
2022/11/06 13:40:41;;;;;;;27.88;16.77;;;;;;;;;;5020108;28;20049;-78
2022/11/06 13:44:02;;;;;;;39.33;22.48;;;;;;;;;;5014316;28;20484;-79
2022/11/06 13:46:54;;;;;;;42.45;25.25;;;;;;;;;;5015360;28;20411;-77
2022/11/06 13:49:55;;;;;;;47.00;28.27;;;;;;;;;;5013627;28;20050;-79
2022/11/06 13:52:50;;;;;;;52.80;28.98;;;;;;;;;;5020887;28;20050;-79
2022/11/06 13:56:05;;;;;;;38.58;23.20;;;;;;;;;;5019298;28;20046;-78
2022/11/06 13:59:05;;;;;;;49.67;26.85;;;;;;;;;;5014017;28;20058;-79
2022/11/06 14:02:13;;;;;;;44.40;27.10;;;;;;;;;;5013513;28;20041;-80
2022/11/06 14:05:16;;;;;;;51.55;27.75;;;;;;;;;;5013807;28;20053;-79
2022/11/06 14:08:04;;;;;;;44.55;23.40;;;;;;;;;;5013967;28;20053;-78
2022/11/06 14:11:00;;;;;;;44.47;25.60;;;;;;;;;;5013947;28;20046;-78
2022/11/06 14:14:05;;;;;;;36.60;23.27;;;;;;;;;;5020797;28;20049;-78
2022/11/06 14:17:15;;;;;;;47.83;26.58;;;;;;;;;;5020187;28;20589;-78
2022/11/06 14:20:24;;;;;;;37.20;22.63;;;;;;;;;;5013905;28;20042;-79
2022/11/06 14:23:37;;;;;;;38.08;21.48;;;;;;;;;;5014971;28;20042;-78
2022/11/06 14:26:42;;;;;;;40.28;26.55;;;;;;;;;;5014496;28;20046;-80
2022/11/06 14:29:28;;;;;;;34.17;20.08;;;;;;;;;;5014313;28;20404;-79
2022/11/06 14:32:22;;;;;;;42.03;24.98;;;;;;;;;;5014026;28;20045;-79
2022/11/06 14:35:27;;;;;;;46.45;26.98;;;;;;;;;;5013685;28;20046;-80
2022/11/06 14:38:27;;;;;;;270.00;189.10;;;;;;;;;;5013312;28;20050;-80
2022/11/06 14:41:34;;;;;;;43.47;24.75;;;;;;;;;;5014723;28;20046;-81
2022/11/06 14:44:25;;;;;;;42.35;24.23;;;;;;;;;;5021168;28;20523;-81
2022/11/06 14:47:51;;;;;;;58.60;27.55;;;;;;;;;;5020518;28;20079;-81
2022/11/06 14:50:40;;;;;;;46.92;25.42;;;;;;;;;;5021193;28;20046;-81
2022/11/06 14:53:32;;;;;;;50.67;27.98;;;;;;;;;;5024973;28;20487;-81
2022/11/06 14:56:23;;;;;;;73.75;37.28;;;;;;;;;;5024230;28;20042;-80
2022/11/06 14:59:21;;;;;;;39.35;22.88;;;;;;;;;;5023427;28;20046;-81
2022/11/06 15:02:22;;;;;;;41.25;21.17;;;;;;;;;;5023839;28;20407;-80
2022/11/06 15:05:16;;;;;;;57.45;26.77;;;;;;;;;;5023219;28;20042;-80
2022/11/06 15:08:02;;;;;;;56.00;28.52;;;;;;;;;;5016823;28;20049;-81
2022/11/06 15:10:49;;;;;;;48.70;26.02;;;;;;;;;;5016646;28;20049;-81
2022/11/06 15:13:35;;;;;;;45.17;25.52;;;;;;;;;;5016419;28;20046;-81
2022/11/06 15:16:23;;;;;;;44.90;24.63;;;;;;;;;;5016245;28;20038;-81
2022/11/06 15:19:14;;;;;;;51.05;29.58;;;;;;;;;;5016881;28;20411;-81
2022/11/06 15:22:19;;;;;;;47.03;27.88;;;;;;;;;;5016864;28;20046;-82
2022/11/06 15:25:24;;;;;;;54.97;30.63;;;;;;;;;;5018183;28;20045;-80
2022/11/06 15:28:27;;;;;;;55.92;28.08;;;;;;;;;;5019624;28;20046;-79
2022/11/06 15:31:17;;;;;;;41.20;25.23;;;;;;;;;;5016033;28;20046;-81
2022/11/06 15:34:11;;;;;;;34.47;19.50;;;;;;;;;;5017211;28;20407;-80
2022/11/06 15:37:16;;;;;;;43.00;22.50;;;;;;;;;;5016142;28;20483;-80
2022/11/06 15:40:02;;;;;;;37.65;20.58;;;;;;;;;;5016195;28;20050;-76
2022/11/06 15:42:48;;;;;;;38.78;21.45;;;;;;;;;;5025281;28;20045;-79
2022/11/06 15:45:33;;;;;;;32.15;18.50;;;;;;;;;;5016337;28;20046;-80
2022/11/06 15:48:21;;;;;;;29.23;16.67;;;;;;;;;;5016106;28;20046;-80
2022/11/06 15:51:21;;;;;;;41.90;19.95;;;;;;;;;;5015618;28;20483;-81
2022/11/06 15:54:12;;;;;;;34.30;17.42;;;;;;;;;;5015973;28;20034;-82
2022/11/06 15:57:01;;;;;;;36.38;20.63;;;;;;;;;;5020613;28;20042;-81
2022/11/06 15:59:46;;;;;;;57.30;30.27;;;;;;;;;;5019291;28;20037;-81
2022/11/06 16:02:44;;;;;;;61.92;31.70;;;;;;;;;;5014704;28;20053;-81
2022/11/06 16:05:31;;;;;;;85.47;40.60;;;;;;;;;;5015858;28;20515;-83
2022/11/06 16:08:19;;;;;;;72.85;37.78;;;;;;;;;;5021863;28;20050;-81
2022/11/06 16:11:16;;;;;;;77.22;36.92;;;;;;;;;;5017808;28;20495;-82
2022/11/06 16:14:02;;;;;;;50.95;25.75;;;;;;;;;;5021259;28;20506;-82
2022/11/06 16:16:55;;;;;;;40.47;23.08;;;;;;;;;;5015272;28;20042;-82
2022/11/06 16:19:44;;;;;;;65.63;32.47;;;;;;;;;;5015905;28;20042;-82
2022/11/06 16:22:33;;;;;;;70.10;31.10;;;;;;;;;;5015221;28;20054;-79
2022/11/06 16:25:19;;;;;;;78.53;31.92;;;;;;;;;;5022737;28;20046;-82
2022/11/06 16:28:15;;;;;;;50.25;26.02;;;;;;;;;;5022215;28;20054;-82
2022/11/06 16:31:14;;;;;;;40.05;21.25;;;;;;;;;;5016011;28;20042;-82
2022/11/06 16:34:03;;;;;;;43.05;22.50;;;;;;;;;;5021521;28;20049;-82
2022/11/06 16:36:58;;;;;;;52.75;26.45;;;;;;;;;;5015218;28;20041;-82
2022/11/06 16:39:47;;;;;;;;;;;;;;;;;;5008531;28;20045;-82
2022/11/06 16:42:37;;;;;;;47.42;26.02;;;;;;;;;;5017211;28;20247;-83
2022/11/06 16:45:23;;;;;;;39.13;20.65;;;;;;;;;;5015798;28;20038;-83
2022/11/06 16:48:09;;;;;;;36.53;21.55;;;;;;;;;;5017123;28;20042;-82
2022/11/06 16:50:58;;;;;;;48.00;29.30;;;;;;;;;;5015282;28;20038;-83
2022/11/06 16:54:02;;;;;;;42.10;26.92;;;;;;;;;;5024117;28;20050;-85
2022/11/06 16:56:48;;;;;;;46.72;25.95;;;;;;;;;;5020590;28;20054;-84
2022/11/06 16:59:33;;;;;;;40.95;23.75;;;;;;;;;;5027545;28;20053;-83
2022/11/06 17:02:21;;;;;;;46.20;24.50;;;;;;;;;;5018095;28;20042;-83
2022/11/06 17:05:11;;;;;;;38.17;20.33;;;;;;;;;;5024712;28;20050;-84